AirNav   Everest Fuels
 
 1112 users online  

01XA Seton Medical Center Hays Heliport
Kyle, Texas, USA

GOING TO KYLE?


FAA INFORMATION EFFECTIVE 10 SEPTEMBER 2020

Location

FAA Identifier: 01XA
Lat/Long: 30-00-26.0000N 097-51-12.0000W
30-00.433333N 097-51.200000W
30.0072222,-97.8533333
(estimated)
Elevation: 715 ft. / 218 m (estimated)
From city: 1 mile NE of KYLE, TX
Time zone: UTC -5 (UTC -6 during Standard Time)
Zip code: 78640

Heliport Operations

Heliport use: Private use. Permission required prior to landing
Activation date: 12/2009
Control tower: no
ARTCC: HOUSTON CENTER
FSS: SAN ANGELO FLIGHT SERVICE STATION
Attendance: CONTINUOUS
Wind indicator: yes
Segmented circle: no
Lights: SS-SR

Heliport Communications

WX AWOS-3PT at HYI (7 nm S): PHONE 512-353-8005
WX ASOS at AUS (15 nm NE): PHONE 512-369-7881

Nearby radio navigation aids

VOR radial/distance  VOR name  Freq  Var
CWKr211/27.9CENTEX VORTAC112.8006E
RNDr033/36.9RANDOLPH VORTAC112.3005E
SATr047/38.4SAN ANTONIO VORTAC116.8008E

 
NDB name  Hdg/Dist  Freq  Var  ID
GARYS053/5.827207ERU .-. ..-
CREED238/10.425504EBS -... ...

Heliport Services

Runway Information

Helipad H1

Dimensions: 50 x 50 ft. / 15 x 15 m
Surface: concrete
Runway edge lights: PERI
Latitude: 30-00.433333N
Longitude: 097-51.200000W
Elevation: 715.0 ft.
Traffic pattern: leftleft

Heliport Ownership and Management from official FAA records

Ownership: Privately-owned
Owner: SETON MEDICAL CENTER HAYS
6001 KYLE PARKWAY
KYLE, TX 78640
Phone 512-324-5000
Manager: RUDY QUINTAMILLA
6001 KYLE PARKWAY
KYLE, TX 78640
Phone (512) 520-7995

Additional Remarks

A52-H1 131 FT TOWER 260 FT EAST OF PAD.
FOR CD CTC AUSTIN APCH AT 512-269-7865.

Instrument Procedures

There are no published instrument procedures at 01XA.

Some nearby airports with instrument procedures:

KHYI - San Marcos Regional Airport (7 nm S)
50R - Lockhart Municipal Airport (13 nm SE)
KAUS - Austin-Bergstrom International Airport (15 nm NE)
KBAZ - New Braunfels Regional Airport (21 nm SW)
3R9 - Lakeway Airpark (22 nm N)
 
Loc | Ops | Rwys | IFR | FBO | Links
Com | Nav | Svcs | Stats | Notes
Aerial photo
No photo
 
Sectional chart

 
Airport distance calculator
Flying to Seton Medical Center Hays Heliport? Find the distance to fly.

From to 01XA

Sunrise and sunset
Times for 19-Sep-2020
 Local
(UTC-5)
 Zulu
(UTC)
Morning civil twilight06:5611:56
Sunrise07:2012:20
Sunset19:3000:30
Evening civil twilight19:5400:54

Current date and time
Zulu (UTC)  20-Sep-2020 02:27:45
Local (UTC-5)  19-Sep-2020 21:27:45
 
METAR
KHYI 
7nm S 
200156Z AUTO 02007KT 10SM CLR 22/14 A3006 RMK AO2 SLP170 T02220139
KAUS 
18nm NE 
200153Z 04009KT 8SM FEW250 23/14 A3005 RMK AO2 SLP167 T02330144
KATT 
19nm NE 
200151Z AUTO VRB05KT 9SM CLR 24/12 A3006 RMK AO2 SLP170 T02440122
TAF
KAUS 
18nm NE 
191727Z 1918/2024 02012G18KT P6SM SCT100 BKN250 FM200200 02005KT P6SM FEW250 FM201500 01012G20KT P6SM FEW250 PROB30 2021/2024 4SM -SHRA OVC030
NOTAMs
Click for the latest NOTAMs
NOTAMs are issued by the DoD/FAA and will open in a separate window not controlled by AirNav.

 

 
 

Would you like to see your business listed on this page?

 If your business provides an interesting product or service to pilots, flight crews, aircraft, or users of the Seton Medical Center Hays Heliport, you should consider listing it here.  To start the listing process, click on the button below
 
Add a business
 

Other Pages about Seton Medical Center Hays Heliport

Update a link
 
Copyright © AirNav, LLC. All rights reserved. Privacy Policy  Contact